createdAt,value
2018-11-06T00:01:28.254Z,10.68
2018-11-06T00:04:02.825Z,10.73
2018-11-06T00:06:32.007Z,10.70
2018-11-06T00:09:00.675Z,10.54
2018-11-06T00:11:29.273Z,10.53
2018-11-06T00:13:57.882Z,10.43
2018-11-06T00:16:26.520Z,10.37
2018-11-06T00:19:00.343Z,10.39
2018-11-06T00:21:29.000Z,10.26
2018-11-06T00:23:57.636Z,10.22
2018-11-06T00:26:26.281Z,10.19
2018-11-06T00:28:54.963Z,10.18
2018-11-06T00:31:23.563Z,10.36
2018-11-06T00:33:52.197Z,10.30
2018-11-06T00:36:20.798Z,10.27
2018-11-06T00:38:49.445Z,10.42
2018-11-06T00:41:18.179Z,10.40
2018-11-06T00:43:46.905Z,10.41
2018-11-06T00:46:15.547Z,10.53
2018-11-06T00:48:44.289Z,10.55
2018-11-06T00:51:12.974Z,10.62
2018-11-06T00:53:41.689Z,10.61
2018-11-06T00:56:10.323Z,10.66
2018-11-06T00:58:39.378Z,10.67
2018-11-06T01:01:08.102Z,10.68
2018-11-06T01:04:09.868Z,10.77
2018-11-06T01:06:38.825Z,10.81
2018-11-06T01:09:10.349Z,10.77
2018-11-06T01:11:39.043Z,10.88
2018-11-06T01:14:07.964Z,10.90
2018-11-06T01:16:36.637Z,10.90
2018-11-06T01:19:05.484Z,10.99
2018-11-06T01:21:34.110Z,11.03
2018-11-06T01:24:02.790Z,11.02
2018-11-06T01:26:31.781Z,11.08
2018-11-06T01:29:00.405Z,11.13
2018-11-06T01:31:29.050Z,11.17
2018-11-06T01:33:57.678Z,11.14
2018-11-06T01:36:26.245Z,11.19
2018-11-06T01:38:54.954Z,11.17
2018-11-06T01:41:23.698Z,11.10
2018-11-06T01:43:52.300Z,11.13
2018-11-06T01:46:20.914Z,11.11
2018-11-06T01:48:49.553Z,11.06
2018-11-06T01:51:18.256Z,11.02
2018-11-06T01:53:47.783Z,10.99
2018-11-06T01:56:16.418Z,10.96
2018-11-06T01:58:45.024Z,10.95
2018-11-06T02:01:13.688Z,10.98
2018-11-06T02:03:42.374Z,11.01
2018-11-06T02:06:10.993Z,10.93
2018-11-06T02:08:39.616Z,10.93
2018-11-06T02:11:08.230Z,10.87
2018-11-06T02:13:36.820Z,10.84
2018-11-06T02:16:05.778Z,10.91
2018-11-06T02:18:34.399Z,10.90
2018-11-06T02:21:03.133Z,10.89
2018-11-06T02:23:31.789Z,10.93
2018-11-06T02:26:00.379Z,10.87
2018-11-06T02:28:28.973Z,10.79
2018-11-06T02:30:57.581Z,10.73
2018-11-06T02:33:26.181Z,10.78
2018-11-06T02:35:54.830Z,10.72
2018-11-06T02:38:23.497Z,10.73
2018-11-06T02:40:52.105Z,10.67
2018-11-06T02:43:20.685Z,10.57
2018-11-06T02:45:49.313Z,10.58
2018-11-06T02:48:17.895Z,10.54
2018-11-06T02:50:46.528Z,10.43
2018-11-06T02:53:15.179Z,10.42
2018-11-06T02:55:43.915Z,10.46
2018-11-06T02:58:12.501Z,10.41
2018-11-06T03:00:41.207Z,10.38
2018-11-06T03:03:09.835Z,10.30
2018-11-06T03:05:38.451Z,10.36
2018-11-06T03:08:07.058Z,10.32
2018-11-06T03:10:35.656Z,10.32
2018-11-06T03:13:04.249Z,10.27
2018-11-06T03:15:32.903Z,10.24
2018-11-06T03:18:01.497Z,10.28
2018-11-06T03:20:30.154Z,10.27
2018-11-06T03:22:58.769Z,10.25
2018-11-06T03:25:27.399Z,10.24
2018-11-06T03:27:56.040Z,10.30
2018-11-06T03:30:24.651Z,10.24
2018-11-06T03:32:53.248Z,10.22
2018-11-06T03:35:21.902Z,10.17
2018-11-06T03:37:50.541Z,10.21
2018-11-06T03:40:19.107Z,10.11
2018-11-06T03:42:47.775Z,10.16
2018-11-06T03:45:16.378Z,10.16
2018-11-06T03:47:44.965Z,10.11
2018-11-06T03:50:13.900Z,9.99
2018-11-06T03:52:42.569Z,9.92
2018-11-06T03:55:11.322Z,9.82
2018-11-06T03:57:39.966Z,9.88
2018-11-06T04:00:11.013Z,9.89
2018-11-06T04:02:39.893Z,9.79
2018-11-06T04:05:08.797Z,9.78
2018-11-06T04:07:37.652Z,9.72
2018-11-06T04:10:07.363Z,9.74
2018-11-06T04:12:36.002Z,9.75
2018-11-06T04:15:04.660Z,9.77
2018-11-06T04:17:33.251Z,9.70
2018-11-06T04:20:01.862Z,9.73
2018-11-06T04:22:30.478Z,9.96
2018-11-06T04:24:59.129Z,9.95
2018-11-06T04:27:27.762Z,9.88
2018-11-06T04:29:56.378Z,9.83
2018-11-06T04:32:24.946Z,9.84
2018-11-06T04:34:53.620Z,9.82
2018-11-06T04:37:22.274Z,9.91
2018-11-06T04:39:50.949Z,9.86
2018-11-06T04:42:19.566Z,9.71
2018-11-06T04:44:48.214Z,9.61
2018-11-06T04:47:17.029Z,9.49
2018-11-06T04:49:45.676Z,9.46
2018-11-06T04:52:14.431Z,9.44
2018-11-06T04:54:43.035Z,9.44
2018-11-06T04:57:11.798Z,9.43
2018-11-06T04:59:40.410Z,9.33
2018-11-06T05:02:09.105Z,9.23
2018-11-06T05:04:37.731Z,9.30
2018-11-06T05:07:06.487Z,9.27
2018-11-06T05:09:35.130Z,9.28
2018-11-06T05:12:03.726Z,9.31
2018-11-06T05:14:33.358Z,9.32
2018-11-06T05:17:02.009Z,9.28
2018-11-06T05:19:30.675Z,9.22
2018-11-06T05:21:59.388Z,9.15
2018-11-06T05:24:28.020Z,9.19
2018-11-06T05:26:56.682Z,9.18
2018-11-06T05:29:25.308Z,9.14
2018-11-06T05:31:53.973Z,9.06
2018-11-06T05:34:22.573Z,9.16
2018-11-06T05:36:51.226Z,9.10
2018-11-06T05:39:19.858Z,9.02
2018-11-06T05:41:48.488Z,9.14
2018-11-06T05:44:17.212Z,9.19
2018-11-06T05:46:45.861Z,9.19
2018-11-06T05:49:14.550Z,9.20
2018-11-06T05:51:43.181Z,9.18
2018-11-06T05:54:11.861Z,9.17
2018-11-06T05:56:40.479Z,9.18
2018-11-06T05:59:09.312Z,9.16
2018-11-06T06:01:38.190Z,9.18
2018-11-06T06:04:07.221Z,9.24
2018-11-06T06:06:35.882Z,9.21
2018-11-06T06:09:06.396Z,9.27
2018-11-06T06:11:35.590Z,9.43
2018-11-06T06:14:04.335Z,9.45
2018-11-06T06:16:33.048Z,9.41
2018-11-06T06:19:01.662Z,9.48
2018-11-06T06:21:30.324Z,9.51
2018-11-06T06:23:58.983Z,9.58
2018-11-06T06:26:27.591Z,9.68
2018-11-06T06:28:56.277Z,9.67
2018-11-06T06:31:24.864Z,9.74
2018-11-06T06:33:53.501Z,9.76
2018-11-06T06:36:22.266Z,9.84
2018-11-06T06:38:50.968Z,9.90
2018-11-06T06:41:19.558Z,9.91
2018-11-06T06:43:48.269Z,10.04
2018-11-06T06:46:16.984Z,10.09
2018-11-06T06:48:45.655Z,10.17
2018-11-06T06:51:14.649Z,10.21
2018-11-06T06:53:43.305Z,10.38
2018-11-06T06:56:11.997Z,10.42
2018-11-06T06:58:40.684Z,10.47
2018-11-06T07:01:09.425Z,10.61
2018-11-06T07:03:38.091Z,10.70
2018-11-06T07:06:06.822Z,10.69
2018-11-06T07:08:35.472Z,10.90
2018-11-06T07:11:04.282Z,10.97
2018-11-06T07:13:32.984Z,11.04
2018-11-06T07:16:01.669Z,11.11
2018-11-06T07:18:30.467Z,11.32
2018-11-06T07:20:59.238Z,11.43
2018-11-06T07:23:27.991Z,11.54
2018-11-06T07:25:57.086Z,11.67
2018-11-06T07:28:25.769Z,11.80
2018-11-06T07:30:54.485Z,11.73
2018-11-06T07:33:23.153Z,11.73
2018-11-06T07:35:52.182Z,11.87
2018-11-06T07:38:20.947Z,11.88
2018-11-06T07:40:49.589Z,12.13
2018-11-06T07:43:18.835Z,12.29
2018-11-06T07:45:47.536Z,12.26
2018-11-06T07:48:16.218Z,12.36
2018-11-06T07:50:45.036Z,12.43
2018-11-06T07:53:13.698Z,12.50
2018-11-06T07:55:42.461Z,12.57
2018-11-06T07:58:11.591Z,12.61
2018-11-06T08:00:40.361Z,12.67
2018-11-06T08:03:09.143Z,12.64
2018-11-06T08:05:38.027Z,12.78
2018-11-06T08:08:06.827Z,12.86
2018-11-06T08:10:35.481Z,12.93
2018-11-06T08:13:04.178Z,12.97
2018-11-06T08:15:32.962Z,13.10
2018-11-06T08:18:01.648Z,13.02
2018-11-06T08:20:30.392Z,12.95
2018-11-06T08:22:59.045Z,12.97
2018-11-06T08:25:27.686Z,13.02
2018-11-06T08:27:56.627Z,13.12
2018-11-06T08:30:25.244Z,13.33
2018-11-06T08:32:55.294Z,13.51
2018-11-06T08:35:24.038Z,13.63
2018-11-06T08:37:53.172Z,13.76
2018-11-06T08:40:21.895Z,14.01
2018-11-06T08:42:50.602Z,14.18
2018-11-06T08:45:19.292Z,14.31
2018-11-06T08:47:48.048Z,14.59
2018-11-06T08:50:18.114Z,14.69
2018-11-06T08:52:46.762Z,14.73
2018-11-06T08:55:16.435Z,14.75
2018-11-06T08:57:45.490Z,14.72
2018-11-06T09:00:16.412Z,14.58
2018-11-06T09:02:46.375Z,14.42
2018-11-06T09:05:15.898Z,14.37
2018-11-06T09:07:44.831Z,14.36
2018-11-06T09:10:14.310Z,14.36
2018-11-06T09:12:43.034Z,14.38
2018-11-06T09:15:13.405Z,14.46
2018-11-06T09:17:42.136Z,14.38
2018-11-06T09:20:12.532Z,14.31
2018-11-06T09:22:41.415Z,14.35
2018-11-06T09:25:11.745Z,14.46
2018-11-06T09:27:40.916Z,14.33
2018-11-06T09:30:12.075Z,14.37
2018-11-06T09:32:40.815Z,14.45
2018-11-06T09:35:10.399Z,14.41
2018-11-06T09:37:39.374Z,14.46
2018-11-06T09:40:09.682Z,14.44
2018-11-06T09:42:38.404Z,14.47
2018-11-06T09:45:07.684Z,14.56
2018-11-06T09:47:36.471Z,14.59
2018-11-06T09:50:06.554Z,14.56
2018-11-06T09:52:35.174Z,14.64
2018-11-06T09:55:03.782Z,14.69
2018-11-06T09:57:32.510Z,14.73
2018-11-06T10:00:01.290Z,14.86
2018-11-06T10:02:30.150Z,14.91
2018-11-06T10:04:58.850Z,14.95
2018-11-06T10:07:27.785Z,14.86
2018-11-06T10:09:56.318Z,14.98
2018-11-06T10:12:24.993Z,15.03
2018-11-06T10:14:53.618Z,14.96
2018-11-06T10:17:22.247Z,14.95
2018-11-06T10:19:50.886Z,15.02
2018-11-06T10:22:19.577Z,15.10
2018-11-06T10:24:48.188Z,15.23
2018-11-06T10:27:16.815Z,15.21
2018-11-06T10:29:45.502Z,15.12
2018-11-06T10:32:14.426Z,15.18
2018-11-06T10:34:43.054Z,15.30
2018-11-06T10:37:11.692Z,15.25
2018-11-06T10:39:40.352Z,15.31
2018-11-06T10:42:09.451Z,15.28
2018-11-06T10:44:38.095Z,15.38
2018-11-06T10:47:06.677Z,15.36
2018-11-06T10:49:35.290Z,15.44
2018-11-06T10:52:03.971Z,15.56
2018-11-06T10:54:32.698Z,15.52
2018-11-06T10:57:01.345Z,15.64
2018-11-06T10:59:29.997Z,15.56
2018-11-06T11:02:03.875Z,15.55
2018-11-06T11:04:32.788Z,15.67
2018-11-06T11:07:01.442Z,15.72
2018-11-06T11:09:30.064Z,15.76
2018-11-06T11:11:58.753Z,15.80
2018-11-06T11:14:27.375Z,15.94
2018-11-06T11:16:55.973Z,15.91
2018-11-06T11:19:24.642Z,15.91
2018-11-06T11:21:53.221Z,15.88
2018-11-06T11:24:21.897Z,15.86
2018-11-06T11:26:50.929Z,15.89
2018-11-06T11:29:19.557Z,15.99
2018-11-06T11:31:48.154Z,16.04
2018-11-06T11:34:17.162Z,16.05
2018-11-06T11:36:45.782Z,16.03
2018-11-06T11:39:14.415Z,16.11
2018-11-06T11:41:43.099Z,16.10
2018-11-06T11:44:11.953Z,16.13
2018-11-06T11:46:40.710Z,16.04
2018-11-06T11:49:09.940Z,16.18
2018-11-06T11:51:38.735Z,16.19
2018-11-06T11:54:07.438Z,16.19
2018-11-06T11:56:36.188Z,16.29
2018-11-06T11:59:04.878Z,16.30
2018-11-06T12:01:33.593Z,16.39
2018-11-06T12:04:02.231Z,16.45
2018-11-06T12:06:30.946Z,16.48
2018-11-06T12:08:59.642Z,16.56
2018-11-06T12:11:28.274Z,16.48
2018-11-06T12:13:57.011Z,16.46
2018-11-06T12:16:25.681Z,16.56
2018-11-06T12:18:54.322Z,16.59
2018-11-06T12:21:22.982Z,16.70
2018-11-06T12:23:51.763Z,16.65
2018-11-06T12:26:20.409Z,16.71
2018-11-06T12:28:49.017Z,16.72
2018-11-06T12:31:17.742Z,16.77
2018-11-06T12:33:46.332Z,16.67
2018-11-06T12:36:15.039Z,16.82
2018-11-06T12:38:43.922Z,16.77
2018-11-06T12:41:13.250Z,16.77
2018-11-06T12:43:41.983Z,16.74
2018-11-06T12:46:10.654Z,16.86
2018-11-06T12:48:39.995Z,17.01
2018-11-06T12:51:08.877Z,16.94
2018-11-06T12:53:37.486Z,17.06
2018-11-06T12:56:06.418Z,16.99
2018-11-06T12:58:35.237Z,17.11
2018-11-06T13:01:03.934Z,17.07
2018-11-06T13:03:32.676Z,17.04
2018-11-06T13:06:02.571Z,17.14
2018-11-06T13:08:31.403Z,17.17
2018-11-06T13:11:00.218Z,17.27
2018-11-06T13:13:29.229Z,17.29
2018-11-06T13:15:58.412Z,17.43
2018-11-06T13:18:27.150Z,17.47
2018-11-06T13:20:55.820Z,17.49
2018-11-06T13:23:24.464Z,17.53
2018-11-06T13:25:53.101Z,17.69
2018-11-06T13:28:21.830Z,17.72
2018-11-06T13:30:50.564Z,17.78
2018-11-06T13:33:19.168Z,17.79
2018-11-06T13:35:47.836Z,17.82
2018-11-06T13:38:16.489Z,17.83
2018-11-06T13:40:45.117Z,17.77
2018-11-06T13:43:13.791Z,17.87
2018-11-06T13:45:42.554Z,17.85
2018-11-06T13:50:44.930Z,18.02
2018-11-06T13:53:13.547Z,18.40
2018-11-06T13:55:42.159Z,18.69
2018-11-06T13:58:10.795Z,18.87
2018-11-06T14:00:39.473Z,19.23
2018-11-06T14:03:08.368Z,19.51
2018-11-06T14:05:37.195Z,19.70
2018-11-06T14:08:06.262Z,19.64
2018-11-06T14:10:34.975Z,19.68
2018-11-06T14:13:03.622Z,19.83
2018-11-06T14:15:32.318Z,19.71
2018-11-06T14:18:01.335Z,19.37
2018-11-06T14:20:30.380Z,19.55
2018-11-06T14:22:59.019Z,19.61
2018-11-06T14:25:30.664Z,20.01
2018-11-06T14:27:59.351Z,19.85
2018-11-06T14:30:28.055Z,20.13
2018-11-06T14:32:56.809Z,20.39
2018-11-06T14:35:25.789Z,20.00
2018-11-06T14:37:54.535Z,19.62
2018-11-06T14:40:23.497Z,19.54
2018-11-06T14:42:52.239Z,19.43
2018-11-06T14:45:20.832Z,19.18
2018-11-06T14:47:49.441Z,19.00
2018-11-06T14:50:18.099Z,18.95
2018-11-06T14:52:46.684Z,18.85
2018-11-06T14:55:16.051Z,18.38
2018-11-06T14:57:44.690Z,18.33
2018-11-06T15:07:15.894Z,17.15
2018-11-06T15:09:44.633Z,16.82
2018-11-06T15:12:13.344Z,16.36
2018-11-06T15:14:42.313Z,16.09
2018-11-06T15:17:10.962Z,15.81
2018-11-06T15:19:39.648Z,15.67
2018-11-06T15:22:08.293Z,15.57
2018-11-06T15:24:36.915Z,15.40
2018-11-06T15:27:05.701Z,15.20
2018-11-06T15:29:34.370Z,15.10
2018-11-06T15:32:02.967Z,15.09
2018-11-06T15:34:31.603Z,15.03
2018-11-06T15:37:00.230Z,14.87
2018-11-06T15:39:28.887Z,14.74
2018-11-06T15:41:57.623Z,14.54
2018-11-06T15:44:26.129Z,14.51
2018-11-06T15:46:54.764Z,14.42
2018-11-06T15:49:23.371Z,14.43
2018-11-06T15:51:51.982Z,14.33
2018-11-06T15:54:20.574Z,14.27
2018-11-06T15:56:49.200Z,14.18
2018-11-06T15:59:17.815Z,14.13
2018-11-06T16:01:46.521Z,14.19
2018-11-06T16:04:15.170Z,14.11
2018-11-06T16:06:43.853Z,14.08
2018-11-06T16:09:12.468Z,14.07
2018-11-06T16:11:41.150Z,14.07
2018-11-06T16:14:09.788Z,13.91
2018-11-06T16:16:38.467Z,13.92
2018-11-06T16:19:07.612Z,13.91
2018-11-06T16:21:36.269Z,13.94
2018-11-06T16:24:04.984Z,13.96
2018-11-06T16:26:33.596Z,13.92
2018-11-06T16:29:02.225Z,13.88
2018-11-06T16:31:30.861Z,13.78
2018-11-06T16:33:59.493Z,13.73
2018-11-06T16:36:28.107Z,13.71
2018-11-06T16:38:56.817Z,13.78
2018-11-06T16:41:25.537Z,13.79
2018-11-06T16:43:54.154Z,13.80
2018-11-06T16:46:22.802Z,13.77
2018-11-06T16:48:51.429Z,13.76
2018-11-06T16:51:20.090Z,13.74
2018-11-06T16:53:48.746Z,13.65
2018-11-06T16:56:17.406Z,13.68
2018-11-06T16:58:46.028Z,13.61
2018-11-06T17:01:14.931Z,13.60
2018-11-06T17:03:43.358Z,13.55
2018-11-06T17:06:23.022Z,13.52
2018-11-06T17:08:51.693Z,13.53
2018-11-06T17:11:20.398Z,13.50
2018-11-06T17:13:49.042Z,13.50
2018-11-06T17:16:23.002Z,13.43
2018-11-06T17:18:52.359Z,13.42
2018-11-06T17:21:21.052Z,13.34
2018-11-06T17:23:49.727Z,13.33
2018-11-06T17:26:18.402Z,13.29
2018-11-06T17:28:47.130Z,13.33
2018-11-06T17:31:15.795Z,13.31
2018-11-06T17:33:44.622Z,13.25
2018-11-06T17:36:13.328Z,13.17
2018-11-06T17:38:42.038Z,13.00
2018-11-06T17:41:10.778Z,13.07
2018-11-06T17:43:39.557Z,13.02
2018-11-06T17:46:08.334Z,12.91
2018-11-06T17:48:37.128Z,12.91
2018-11-06T17:51:05.991Z,12.89
2018-11-06T17:53:34.722Z,12.82
2018-11-06T17:56:03.449Z,12.83
2018-11-06T17:58:32.228Z,12.79
2018-11-06T18:01:01.077Z,12.75
2018-11-06T18:03:29.946Z,12.71
2018-11-06T18:05:58.839Z,12.62
2018-11-06T18:08:27.654Z,12.64
2018-11-06T18:10:56.501Z,12.61
2018-11-06T18:13:25.838Z,12.68
2018-11-06T18:15:54.653Z,12.65
2018-11-06T18:18:23.386Z,12.68
2018-11-06T18:20:52.066Z,12.67
2018-11-06T18:23:20.750Z,12.67
2018-11-06T18:25:49.616Z,12.61
2018-11-06T18:28:18.157Z,12.59
2018-11-06T18:30:46.964Z,12.58
2018-11-06T18:33:15.680Z,12.60
2018-11-06T18:35:44.449Z,12.66
2018-11-06T18:38:13.250Z,12.59
2018-11-06T18:40:42.043Z,12.50
2018-11-06T18:43:10.740Z,12.49
2018-11-06T18:45:39.854Z,12.41
2018-11-06T18:48:08.697Z,12.44
2018-11-06T18:50:37.468Z,12.44
2018-11-06T18:53:06.595Z,12.43
2018-11-06T18:55:35.465Z,12.38
2018-11-06T18:58:04.269Z,12.30
2018-11-06T19:00:32.980Z,12.31
2018-11-06T19:03:01.715Z,12.24
2018-11-06T19:05:30.607Z,12.24
2018-11-06T19:08:00.582Z,12.32
2018-11-06T19:10:30.382Z,12.27
2018-11-06T19:12:59.696Z,12.22
2018-11-06T19:15:28.588Z,12.15
2018-11-06T19:17:57.808Z,12.14
2018-11-06T19:20:26.726Z,12.17
2018-11-06T19:22:55.394Z,12.17
2018-11-06T19:25:24.116Z,12.22
2018-11-06T19:27:52.822Z,12.28
2018-11-06T19:30:21.640Z,12.19
2018-11-06T19:32:50.757Z,12.18
2018-11-06T19:35:19.525Z,12.18
2018-11-06T19:40:22.376Z,12.07
2018-11-06T19:42:51.228Z,11.96
2018-11-06T19:45:20.181Z,11.91
2018-11-06T19:47:49.067Z,11.96
2018-11-06T19:50:19.233Z,11.87
2018-11-06T19:52:48.316Z,11.93
2018-11-06T19:55:18.017Z,11.89
2018-11-06T19:57:47.043Z,11.85
2018-11-06T20:00:22.026Z,11.82
2018-11-06T20:02:52.007Z,11.86
2018-11-06T20:05:21.097Z,11.90
2018-11-06T20:07:50.994Z,11.82
2018-11-06T20:10:21.389Z,11.78
2018-11-06T20:12:51.450Z,11.76
2018-11-06T20:15:20.323Z,11.67
2018-11-06T20:17:49.494Z,11.65
2018-11-06T20:20:20.149Z,11.78
2018-11-06T20:22:48.919Z,11.72
2018-11-06T20:25:24.109Z,11.70
2018-11-06T20:27:52.987Z,11.66
2018-11-06T20:30:23.360Z,11.68
2018-11-06T20:32:52.282Z,11.76
2018-11-06T20:35:21.029Z,11.72
2018-11-06T20:37:50.063Z,11.76
2018-11-06T20:40:22.397Z,11.68
2018-11-06T20:42:51.287Z,11.71
2018-11-06T20:45:20.516Z,11.68
2018-11-06T20:47:49.298Z,11.67
2018-11-06T20:50:21.063Z,11.56
2018-11-06T20:52:50.034Z,11.57
2018-11-06T20:55:19.248Z,11.67
2018-11-06T20:57:47.870Z,11.68
2018-11-06T21:00:21.523Z,11.73
2018-11-06T21:02:51.140Z,11.72
2018-11-06T21:05:19.929Z,11.70
2018-11-06T21:07:48.958Z,11.63
2018-11-06T21:10:19.160Z,11.59
2018-11-06T21:12:48.152Z,11.59
2018-11-06T21:15:17.017Z,11.48
2018-11-06T21:17:45.886Z,11.44
2018-11-06T21:20:15.313Z,11.47
2018-11-06T21:22:44.036Z,11.40
2018-11-06T21:25:13.162Z,11.45
2018-11-06T21:27:42.610Z,11.44
2018-11-06T21:30:15.976Z,11.37
2018-11-06T21:32:46.108Z,11.31
2018-11-06T21:35:14.963Z,11.26
2018-11-06T21:37:43.808Z,11.22
2018-11-06T21:40:15.408Z,11.15
2018-11-06T21:42:44.654Z,11.10
2018-11-06T21:45:14.029Z,11.11
2018-11-06T21:47:43.533Z,11.12
2018-11-06T21:50:13.158Z,11.14
2018-11-06T21:52:41.942Z,11.06
2018-11-06T21:55:11.862Z,11.06
2018-11-06T21:57:40.544Z,11.01
2018-11-06T22:00:13.285Z,11.01
2018-11-06T22:02:41.922Z,11.00
2018-11-06T22:05:13.522Z,11.05
2018-11-06T22:07:42.408Z,11.14
2018-11-06T22:10:12.459Z,11.11
2018-11-06T22:12:41.869Z,11.01
2018-11-06T22:15:11.610Z,10.95
2018-11-06T22:17:40.721Z,11.01
2018-11-06T22:20:11.062Z,10.89
2018-11-06T22:22:39.749Z,10.89
2018-11-06T22:25:08.574Z,10.97
2018-11-06T22:27:37.529Z,10.93
2018-11-06T22:30:08.214Z,10.90
2018-11-06T22:32:37.288Z,10.82
2018-11-06T22:35:07.556Z,10.86
2018-11-06T22:37:36.188Z,10.90
2018-11-06T22:40:04.998Z,10.86
2018-11-06T22:42:33.575Z,10.80
2018-11-06T22:45:02.226Z,10.81
2018-11-06T22:47:30.808Z,10.80
2018-11-06T22:49:59.461Z,10.86
2018-11-06T22:52:28.105Z,10.83
2018-11-06T22:54:56.756Z,10.73
2018-11-06T22:57:25.542Z,10.79
2018-11-06T22:59:54.204Z,10.71
2018-11-06T23:02:22.814Z,10.67
2018-11-06T23:04:57.216Z,10.56
2018-11-06T23:07:31.025Z,10.48
2018-11-06T23:09:59.655Z,10.49
2018-11-06T23:12:28.265Z,10.45
2018-11-06T23:14:56.907Z,10.37
2018-11-06T23:17:25.562Z,10.55
2018-11-06T23:19:54.170Z,10.53
2018-11-06T23:22:22.842Z,10.39
2018-11-06T23:24:51.534Z,10.32
2018-11-06T23:27:20.127Z,10.26
2018-11-06T23:29:48.769Z,10.30
2018-11-06T23:32:17.414Z,10.29
2018-11-06T23:34:46.025Z,10.27
2018-11-06T23:37:14.612Z,10.15
2018-11-06T23:39:43.234Z,10.08
2018-11-06T23:42:11.877Z,10.02
2018-11-06T23:44:40.496Z,10.01
2018-11-06T23:47:09.104Z,9.92
2018-11-06T23:49:37.752Z,9.84
2018-11-06T23:52:06.365Z,9.79
2018-11-06T23:54:34.986Z,9.72
2018-11-06T23:57:03.592Z,9.73
2018-11-06T23:59:32.245Z,9.65
